createdAt,value
2023-12-18T00:02:22.849Z,6.29
2023-12-18T00:04:49.337Z,6.27
2023-12-18T00:07:16.304Z,6.27
2023-12-18T00:09:42.894Z,6.29
2023-12-18T00:12:09.483Z,6.28
2023-12-18T00:14:37.052Z,6.29
2023-12-18T00:17:03.579Z,6.29
2023-12-18T00:19:30.178Z,6.30
2023-12-18T00:21:56.816Z,6.29
2023-12-18T00:24:23.443Z,6.33
2023-12-18T00:26:49.923Z,6.34
2023-12-18T00:29:16.435Z,6.34
2023-12-18T00:31:43.743Z,6.34
2023-12-18T00:34:10.341Z,6.36
2023-12-18T00:36:37.074Z,6.36
2023-12-18T00:39:03.761Z,6.37
2023-12-18T00:41:30.247Z,6.38
2023-12-18T00:43:56.735Z,6.40
2023-12-18T00:46:23.211Z,6.42
2023-12-18T00:48:49.911Z,6.42
2023-12-18T00:51:16.439Z,6.42
2023-12-18T00:53:42.994Z,6.43
2023-12-18T00:56:09.460Z,6.45
2023-12-18T00:58:36.015Z,6.45
2023-12-18T01:01:02.677Z,6.46
2023-12-18T01:03:29.945Z,6.48
2023-12-18T01:05:56.605Z,6.49
2023-12-18T01:08:23.048Z,6.49
2023-12-18T01:10:49.547Z,6.49
2023-12-18T01:13:16.079Z,6.51
2023-12-18T01:15:42.625Z,6.51
2023-12-18T01:18:09.416Z,6.50
2023-12-18T01:20:36.124Z,6.51
2023-12-18T01:23:04.893Z,6.51
2023-12-18T01:25:32.655Z,6.50
2023-12-18T01:28:00.694Z,6.53
2023-12-18T01:30:27.732Z,6.53
2023-12-18T01:32:54.370Z,6.52
2023-12-18T01:35:21.020Z,6.52
2023-12-18T01:37:47.647Z,6.49
2023-12-18T01:40:14.317Z,6.49
2023-12-18T01:42:44.576Z,6.49
2023-12-18T01:45:11.147Z,6.48
2023-12-18T01:47:37.831Z,6.47
2023-12-18T01:50:06.239Z,6.48
2023-12-18T01:52:34.933Z,6.49
2023-12-18T01:55:02.071Z,6.51
2023-12-18T01:57:28.961Z,6.51
2023-12-18T01:59:56.626Z,6.50
2023-12-18T02:02:23.350Z,6.52
2023-12-18T02:04:50.144Z,6.52
2023-12-18T02:07:16.697Z,6.54
2023-12-18T02:09:43.901Z,6.54
2023-12-18T02:12:10.495Z,6.55
2023-12-18T02:14:37.073Z,6.55
2023-12-18T02:17:03.849Z,6.57
2023-12-18T02:19:31.348Z,6.56
2023-12-18T02:21:58.852Z,6.59
2023-12-18T02:24:25.594Z,6.58
2023-12-18T02:26:53.653Z,6.61
2023-12-18T02:29:20.193Z,6.60
2023-12-18T02:31:46.664Z,6.61
2023-12-18T02:34:13.285Z,6.62
2023-12-18T02:36:40.045Z,6.63
2023-12-18T02:39:07.288Z,6.65
2023-12-18T02:41:33.783Z,6.66
2023-12-18T02:44:00.243Z,6.68
2023-12-18T02:46:26.766Z,6.70
2023-12-18T02:48:53.340Z,6.70
2023-12-18T02:51:19.904Z,6.70
2023-12-18T02:53:46.473Z,6.71
2023-12-18T02:56:14.195Z,6.72
2023-12-18T02:58:41.656Z,6.72
2023-12-18T03:01:08.216Z,6.72
2023-12-18T03:03:34.929Z,6.74
2023-12-18T03:06:01.703Z,6.74
2023-12-18T03:08:28.344Z,6.76
2023-12-18T03:10:54.851Z,6.75
2023-12-18T03:13:21.392Z,6.74
2023-12-18T03:15:47.936Z,6.73
2023-12-18T03:18:14.603Z,6.73
2023-12-18T03:20:41.156Z,6.72
2023-12-18T03:23:07.617Z,6.73
2023-12-18T03:25:34.138Z,6.73
2023-12-18T03:28:00.613Z,6.70
2023-12-18T03:30:27.150Z,6.68
2023-12-18T03:32:53.801Z,6.67
2023-12-18T03:35:20.348Z,6.64
2023-12-18T03:37:46.818Z,6.63
2023-12-18T03:40:13.390Z,6.63
2023-12-18T03:42:41.170Z,6.63
2023-12-18T03:45:08.382Z,6.62
2023-12-18T03:47:34.985Z,6.63
2023-12-18T03:50:01.583Z,6.63
2023-12-18T03:52:28.115Z,6.61
2023-12-18T03:54:54.630Z,6.61
2023-12-18T03:57:21.246Z,6.62
2023-12-18T03:59:47.779Z,6.61
2023-12-18T04:02:14.248Z,6.61
2023-12-18T04:04:40.882Z,6.60
2023-12-18T04:07:07.412Z,6.60
2023-12-18T04:09:33.921Z,6.59
2023-12-18T04:12:00.390Z,6.58
2023-12-18T04:14:26.943Z,6.56
2023-12-18T04:16:53.415Z,6.55
2023-12-18T04:19:20.012Z,6.53
2023-12-18T04:21:46.740Z,6.52
2023-12-18T04:24:13.303Z,6.49
2023-12-18T04:26:39.786Z,6.48
2023-12-18T04:29:06.265Z,6.47
2023-12-18T04:31:32.989Z,6.47
2023-12-18T04:33:59.633Z,6.48
2023-12-18T04:36:26.159Z,6.47
2023-12-18T04:38:52.661Z,6.47
2023-12-18T04:41:22.800Z,6.45
2023-12-18T04:43:49.850Z,6.44
2023-12-18T04:46:16.335Z,6.43
2023-12-18T04:48:43.154Z,6.42
2023-12-18T04:51:10.332Z,6.40
2023-12-18T04:53:37.333Z,6.38
2023-12-18T04:56:05.332Z,6.36
2023-12-18T04:58:32.973Z,6.36
2023-12-18T05:00:59.813Z,6.33
2023-12-18T05:03:26.511Z,6.30
2023-12-18T05:05:53.080Z,6.30
2023-12-18T05:08:19.621Z,6.28
2023-12-18T05:10:46.141Z,6.26
2023-12-18T05:13:12.617Z,6.27
2023-12-18T05:15:39.283Z,6.25
2023-12-18T05:18:06.796Z,6.26
2023-12-18T05:20:33.481Z,6.25
2023-12-18T05:23:00.023Z,6.24
2023-12-18T05:25:26.647Z,6.25
2023-12-18T05:27:53.158Z,6.24
2023-12-18T05:30:19.804Z,6.24
2023-12-18T05:32:47.273Z,6.24
2023-12-18T05:35:14.039Z,6.23
2023-12-18T05:37:40.950Z,6.21
2023-12-18T05:40:08.037Z,6.18
2023-12-18T05:42:34.571Z,6.20
2023-12-18T05:45:01.139Z,6.18
2023-12-18T05:47:27.618Z,6.18
2023-12-18T05:49:54.437Z,6.17
2023-12-18T05:52:21.131Z,6.16
2023-12-18T05:54:47.688Z,6.16
2023-12-18T05:57:17.973Z,6.17
2023-12-18T05:59:44.570Z,6.17
2023-12-18T06:02:11.184Z,6.17
2023-12-18T06:04:39.743Z,6.18
2023-12-18T06:07:06.386Z,6.18
2023-12-18T06:09:32.946Z,6.17
2023-12-18T06:11:59.429Z,6.18
2023-12-18T06:14:25.952Z,6.17
2023-12-18T06:16:52.435Z,6.19
2023-12-18T06:19:19.021Z,6.20
2023-12-18T06:21:45.766Z,6.20
2023-12-18T06:24:12.311Z,6.20
2023-12-18T06:26:38.795Z,6.20
2023-12-18T06:29:05.290Z,6.22
2023-12-18T06:31:32.085Z,6.22
2023-12-18T06:33:58.784Z,6.24
2023-12-18T06:36:25.380Z,6.25
2023-12-18T06:38:51.987Z,6.26
2023-12-18T06:41:18.745Z,6.25
2023-12-18T06:43:45.672Z,6.26
2023-12-18T06:46:14.258Z,6.28
2023-12-18T06:48:43.316Z,6.28
2023-12-18T06:51:13.123Z,6.30
2023-12-18T06:53:39.770Z,6.29
2023-12-18T06:56:06.678Z,6.30
2023-12-18T06:58:33.196Z,6.33
2023-12-18T07:01:00.040Z,6.35
2023-12-18T07:03:28.284Z,6.35
2023-12-18T07:05:55.418Z,6.37
2023-12-18T07:08:22.637Z,6.37
2023-12-18T07:10:50.403Z,6.39
2023-12-18T07:13:17.175Z,6.39
2023-12-18T07:15:43.686Z,6.39
2023-12-18T07:18:10.683Z,6.40
2023-12-18T07:20:37.449Z,6.41
2023-12-18T07:23:04.301Z,6.42
2023-12-18T07:25:30.811Z,6.43
2023-12-18T07:27:57.250Z,6.44
2023-12-18T07:30:23.847Z,6.44
2023-12-18T07:32:51.429Z,6.46
2023-12-18T07:35:18.883Z,6.45
2023-12-18T07:37:46.397Z,6.47
2023-12-18T07:40:13.047Z,6.47
2023-12-18T07:42:39.637Z,6.49
2023-12-18T07:45:06.759Z,6.48
2023-12-18T07:47:33.436Z,6.47
2023-12-18T07:50:00.098Z,6.48
2023-12-18T07:52:26.709Z,6.50
2023-12-18T07:54:53.129Z,6.50
2023-12-18T07:57:19.598Z,6.51
2023-12-18T07:59:46.087Z,6.51
2023-12-18T08:02:12.635Z,6.54
2023-12-18T08:04:39.462Z,6.55
2023-12-18T08:07:06.247Z,6.55
2023-12-18T08:09:33.226Z,6.57
2023-12-18T08:12:00.240Z,6.58
2023-12-18T08:14:27.230Z,6.59
2023-12-18T08:16:53.723Z,6.61
2023-12-18T08:19:20.604Z,6.61
2023-12-18T08:21:47.328Z,6.64
2023-12-18T08:24:13.875Z,6.67
2023-12-18T08:26:40.421Z,6.68
2023-12-18T08:29:09.099Z,6.70
2023-12-18T08:31:36.444Z,6.69
2023-12-18T08:34:03.184Z,6.71
2023-12-18T08:36:31.246Z,6.73
2023-12-18T08:38:57.836Z,6.74
2023-12-18T08:41:24.301Z,6.76
2023-12-18T08:43:58.575Z,6.77
2023-12-18T08:46:31.886Z,6.79
2023-12-18T08:48:58.513Z,6.80
2023-12-18T08:51:25.169Z,6.81
2023-12-18T08:53:51.778Z,6.81
2023-12-18T08:56:18.275Z,6.82
2023-12-18T08:58:44.833Z,6.83
2023-12-18T09:01:11.475Z,6.86
2023-12-18T09:03:38.111Z,6.86
2023-12-18T09:06:05.171Z,6.89
2023-12-18T09:08:40.269Z,6.88
2023-12-18T09:11:08.266Z,6.91
2023-12-18T09:13:36.096Z,6.94
2023-12-18T09:16:06.718Z,6.94
2023-12-18T09:18:33.834Z,6.97
2023-12-18T09:21:00.766Z,6.98
2023-12-18T09:23:27.429Z,7.00
2023-12-18T09:25:54.628Z,7.01
2023-12-18T09:28:21.229Z,7.04
2023-12-18T09:30:47.936Z,7.06
2023-12-18T09:33:14.974Z,7.06
2023-12-18T09:35:41.704Z,7.05
2023-12-18T09:38:08.276Z,7.07
2023-12-18T09:40:34.835Z,7.05
2023-12-18T09:43:03.651Z,7.05
2023-12-18T09:45:32.144Z,7.04
2023-12-18T09:47:59.271Z,7.04
2023-12-18T09:50:25.791Z,7.06
2023-12-18T09:53:08.725Z,7.07
2023-12-18T09:55:36.270Z,7.08
2023-12-18T09:58:03.783Z,7.08
2023-12-18T10:00:30.696Z,7.12
2023-12-18T10:02:58.364Z,7.16
2023-12-18T10:05:25.067Z,7.18
2023-12-18T10:07:55.203Z,7.20
2023-12-18T10:10:23.109Z,7.25
2023-12-18T10:12:49.970Z,7.28
2023-12-18T10:15:16.680Z,7.34
2023-12-18T10:17:43.731Z,7.35
2023-12-18T10:20:12.498Z,7.41
2023-12-18T10:22:42.924Z,7.46
2023-12-18T10:25:11.142Z,7.54
2023-12-18T10:27:39.602Z,7.58
2023-12-18T10:30:08.326Z,7.62
2023-12-18T10:32:38.892Z,7.62
2023-12-18T10:35:07.051Z,7.64
2023-12-18T10:37:34.384Z,7.64
2023-12-18T10:40:05.587Z,7.66
2023-12-18T10:42:36.982Z,7.66
2023-12-18T10:45:07.708Z,7.63
2023-12-18T10:47:35.313Z,7.61
2023-12-18T10:50:03.812Z,7.60
2023-12-18T10:52:31.196Z,7.59
2023-12-18T10:55:01.809Z,7.57
2023-12-18T10:57:31.203Z,7.55
2023-12-18T10:59:59.950Z,7.53
2023-12-18T11:02:27.735Z,7.55
2023-12-18T11:04:57.592Z,7.57
2023-12-18T11:07:26.733Z,7.61
2023-12-18T11:09:54.805Z,7.62
2023-12-18T11:12:24.486Z,7.65
2023-12-18T11:15:03.237Z,7.70
2023-12-18T11:17:40.986Z,7.73
2023-12-18T11:20:21.873Z,7.77
2023-12-18T11:22:48.931Z,7.80
2023-12-18T11:25:17.915Z,7.88
2023-12-18T11:27:45.014Z,7.90
2023-12-18T11:30:33.807Z,7.96
2023-12-18T11:33:05.679Z,8.02
2023-12-18T11:35:34.493Z,8.02
2023-12-18T11:38:08.249Z,8.05
2023-12-18T11:40:40.963Z,8.07
2023-12-18T11:43:09.676Z,8.04
2023-12-18T11:45:42.133Z,8.05
2023-12-18T11:48:10.378Z,8.07
2023-12-18T11:50:39.063Z,8.07
2023-12-18T11:53:09.349Z,8.08
2023-12-18T11:55:39.082Z,8.10
2023-12-18T11:58:05.714Z,8.09
2023-12-18T12:00:33.034Z,8.06
2023-12-18T12:02:59.663Z,8.06
2023-12-18T12:05:26.635Z,8.08
2023-12-18T12:07:53.973Z,8.07
2023-12-18T12:10:21.337Z,8.06
2023-12-18T12:12:58.866Z,8.04
2023-12-18T12:15:25.862Z,8.01
2023-12-18T12:18:01.035Z,8.01
2023-12-18T12:20:27.553Z,7.98
2023-12-18T12:22:54.014Z,7.96
2023-12-18T12:25:20.558Z,7.96
2023-12-18T12:27:47.014Z,7.95
2023-12-18T12:30:14.153Z,7.93
2023-12-18T12:32:41.166Z,7.93
2023-12-18T12:35:08.663Z,7.92
2023-12-18T12:37:35.235Z,7.93
2023-12-18T12:40:07.171Z,7.93
2023-12-18T12:42:37.439Z,7.91
2023-12-18T12:45:05.441Z,7.91
2023-12-18T12:47:32.153Z,7.90
2023-12-18T12:50:06.696Z,7.89
2023-12-18T12:52:36.853Z,7.90
2023-12-18T12:55:03.541Z,7.90
2023-12-18T12:57:29.999Z,7.92
2023-12-18T12:59:57.216Z,7.96
2023-12-18T13:02:25.488Z,7.95
2023-12-18T13:04:53.427Z,7.94
2023-12-18T13:07:24.552Z,7.99
2023-12-18T13:09:52.203Z,8.00
2023-12-18T13:12:20.970Z,8.00
2023-12-18T13:14:49.930Z,8.02
2023-12-18T13:17:16.692Z,8.03
2023-12-18T13:19:43.258Z,8.04
2023-12-18T13:22:10.004Z,8.05
2023-12-18T13:24:36.573Z,8.06
2023-12-18T13:27:04.351Z,8.06
2023-12-18T13:29:36.893Z,8.03
2023-12-18T13:32:04.463Z,8.03
2023-12-18T13:34:34.661Z,8.02
2023-12-18T13:37:02.455Z,8.03
2023-12-18T13:39:29.582Z,8.02
2023-12-18T13:41:57.618Z,8.01
2023-12-18T13:44:24.701Z,7.99
2023-12-18T13:46:52.536Z,7.98
2023-12-18T13:49:20.108Z,7.96
2023-12-18T13:51:47.042Z,7.97
2023-12-18T13:54:13.971Z,7.92
2023-12-18T13:56:42.170Z,7.87
2023-12-18T13:59:08.644Z,7.85
2023-12-18T14:01:35.844Z,7.82
2023-12-18T14:04:03.112Z,7.79
2023-12-18T14:06:30.241Z,7.75
2023-12-18T14:08:56.902Z,7.73
2023-12-18T14:11:23.422Z,7.68
2023-12-18T14:13:49.953Z,7.66
2023-12-18T14:16:16.930Z,7.65
2023-12-18T14:18:43.632Z,7.62
2023-12-18T14:21:10.346Z,7.59
2023-12-18T14:23:36.889Z,7.58
2023-12-18T14:26:03.519Z,7.56
2023-12-18T14:28:31.874Z,7.54
2023-12-18T14:30:58.502Z,7.50
2023-12-18T14:33:25.167Z,7.48
2023-12-18T14:35:51.861Z,7.47
2023-12-18T14:38:19.669Z,7.47
2023-12-18T14:40:46.494Z,7.45
2023-12-18T14:43:13.189Z,7.45
2023-12-18T14:45:40.110Z,7.47
2023-12-18T14:48:07.118Z,7.46
2023-12-18T14:50:34.836Z,7.45
2023-12-18T14:53:03.347Z,7.45
2023-12-18T14:55:31.696Z,7.45
2023-12-18T14:58:03.193Z,7.42
2023-12-18T15:00:30.035Z,7.40
2023-12-18T15:02:56.980Z,7.34
2023-12-18T15:05:24.462Z,7.34
2023-12-18T15:07:52.106Z,7.27
2023-12-18T15:10:19.179Z,7.25
2023-12-18T15:12:47.493Z,7.22
2023-12-18T15:15:14.507Z,7.22
2023-12-18T15:17:41.222Z,7.19
2023-12-18T15:20:09.812Z,7.17
2023-12-18T15:22:37.591Z,7.16
2023-12-18T15:25:05.300Z,7.15
2023-12-18T15:27:32.110Z,7.16
2023-12-18T15:29:58.823Z,7.14
2023-12-18T15:32:25.735Z,7.15
2023-12-18T15:34:52.397Z,7.13
2023-12-18T15:37:19.150Z,7.12
2023-12-18T15:39:46.872Z,7.11
2023-12-18T15:42:13.481Z,7.11
2023-12-18T15:44:40.535Z,7.11
2023-12-18T15:47:08.568Z,7.12
2023-12-18T15:49:35.272Z,7.08
2023-12-18T15:52:02.304Z,7.08
2023-12-18T15:54:28.930Z,7.08
2023-12-18T15:56:55.943Z,7.06
2023-12-18T15:59:22.969Z,7.06
2023-12-18T16:01:49.756Z,7.03
2023-12-18T16:04:16.405Z,7.01
2023-12-18T16:06:43.377Z,6.99
2023-12-18T16:09:11.663Z,6.99
2023-12-18T16:11:39.816Z,6.99
2023-12-18T16:14:06.636Z,6.99
2023-12-18T16:16:33.297Z,6.99
2023-12-18T16:19:00.011Z,6.98
2023-12-18T16:21:26.666Z,6.97
2023-12-18T16:23:53.167Z,6.96
2023-12-18T16:26:19.700Z,6.95
2023-12-18T16:28:46.849Z,6.94
2023-12-18T16:31:13.506Z,6.94
2023-12-18T16:33:40.259Z,6.93
2023-12-18T16:36:17.022Z,6.91
2023-12-18T16:38:47.230Z,6.91
2023-12-18T16:41:13.868Z,6.91
2023-12-18T16:43:40.325Z,6.88
2023-12-18T16:46:06.847Z,6.87
2023-12-18T16:48:33.505Z,6.86
2023-12-18T16:51:00.126Z,6.87
2023-12-18T16:53:26.643Z,6.85
2023-12-18T16:55:53.148Z,6.85
2023-12-18T16:58:19.659Z,6.85
2023-12-18T17:00:46.198Z,6.85
2023-12-18T17:03:15.368Z,6.84
2023-12-18T17:05:42.118Z,6.84
2023-12-18T17:08:08.681Z,6.83
2023-12-18T17:10:35.193Z,6.83
2023-12-18T17:13:01.881Z,6.82
2023-12-18T17:15:30.106Z,6.83
2023-12-18T17:17:56.906Z,6.82
2023-12-18T17:20:23.490Z,6.82
2023-12-18T17:22:50.470Z,6.83
2023-12-18T17:25:17.617Z,6.85
2023-12-18T17:27:44.248Z,6.84
2023-12-18T17:30:11.093Z,6.83
2023-12-18T17:32:37.627Z,6.82
2023-12-18T17:35:04.515Z,6.81
2023-12-18T17:37:32.026Z,6.78
2023-12-18T17:39:58.499Z,6.77
2023-12-18T17:42:30.632Z,6.76
2023-12-18T17:45:00.353Z,6.73
2023-12-18T17:47:28.212Z,6.70
2023-12-18T17:49:54.950Z,6.68
2023-12-18T17:52:21.820Z,6.64
2023-12-18T17:54:48.615Z,6.61
2023-12-18T17:57:15.571Z,6.57
2023-12-18T17:59:42.654Z,6.55
2023-12-18T18:02:11.060Z,6.51
2023-12-18T18:04:37.996Z,6.47
2023-12-18T18:07:05.974Z,6.46
2023-12-18T18:09:33.007Z,6.45
2023-12-18T18:11:59.504Z,6.43
2023-12-18T18:14:25.937Z,6.41
2023-12-18T18:16:52.418Z,6.38
2023-12-18T18:19:20.747Z,6.36
2023-12-18T18:21:47.502Z,6.33
2023-12-18T18:24:14.212Z,6.33
2023-12-18T18:26:40.721Z,6.31
2023-12-18T18:29:07.254Z,6.27
2023-12-18T18:31:34.083Z,6.24
2023-12-18T18:34:01.362Z,6.22
2023-12-18T18:36:34.395Z,6.21
2023-12-18T18:39:03.756Z,6.19
2023-12-18T18:41:31.188Z,6.18
2023-12-18T18:43:57.660Z,6.16
2023-12-18T18:46:27.267Z,6.16
2023-12-18T18:48:54.124Z,6.12
2023-12-18T18:51:20.885Z,6.12
2023-12-18T18:53:47.498Z,6.07
2023-12-18T18:56:13.947Z,6.06
2023-12-18T18:58:40.550Z,6.03
2023-12-18T19:01:13.193Z,5.99
2023-12-18T19:03:40.901Z,5.97
2023-12-18T19:06:07.468Z,5.96
2023-12-18T19:08:33.952Z,5.93
2023-12-18T19:11:02.661Z,5.92
2023-12-18T19:13:29.094Z,5.91
2023-12-18T19:15:55.656Z,5.91
2023-12-18T19:18:22.248Z,5.90
2023-12-18T19:20:49.628Z,5.91
2023-12-18T19:23:16.276Z,5.88
2023-12-18T19:25:45.121Z,5.84
2023-12-18T19:28:13.659Z,5.80
2023-12-18T19:30:40.276Z,5.79
2023-12-18T19:33:06.940Z,5.78
2023-12-18T19:35:33.466Z,5.76
2023-12-18T19:38:00.078Z,5.75
2023-12-18T19:40:26.630Z,5.72
2023-12-18T19:42:53.699Z,5.73
2023-12-18T19:45:20.422Z,5.72
2023-12-18T19:47:47.116Z,5.71
2023-12-18T19:50:14.077Z,5.72
2023-12-18T19:52:42.921Z,5.69
2023-12-18T19:55:10.545Z,5.69
2023-12-18T19:57:38.115Z,5.70
2023-12-18T20:00:05.694Z,5.67
2023-12-18T20:02:35.632Z,5.66
2023-12-18T20:05:02.195Z,5.67
2023-12-18T20:07:28.749Z,5.68
2023-12-18T20:09:55.396Z,5.67
2023-12-18T20:12:21.962Z,5.66
2023-12-18T20:14:48.948Z,5.65
2023-12-18T20:17:15.490Z,5.64
2023-12-18T20:19:43.173Z,5.63
2023-12-18T20:22:10.273Z,5.63
2023-12-18T20:24:37.212Z,5.64
2023-12-18T20:27:04.015Z,5.65
2023-12-18T20:29:30.795Z,5.65
2023-12-18T20:31:57.521Z,5.66
2023-12-18T20:34:24.250Z,5.67
2023-12-18T20:36:50.933Z,5.66
2023-12-18T20:39:17.451Z,5.65
2023-12-18T20:41:45.015Z,5.65
2023-12-18T20:44:11.929Z,5.64
2023-12-18T20:46:38.819Z,5.64
2023-12-18T20:49:05.725Z,5.63
2023-12-18T20:51:39.886Z,5.62
2023-12-18T20:54:06.638Z,5.61
2023-12-18T20:56:33.516Z,5.60
2023-12-18T20:59:00.150Z,5.62
2023-12-18T21:01:26.832Z,5.61
2023-12-18T21:03:55.041Z,5.62
2023-12-18T21:06:21.971Z,5.63
2023-12-18T21:08:49.653Z,5.64
2023-12-18T21:11:18.221Z,5.63
2023-12-18T21:13:45.847Z,5.64
2023-12-18T21:16:14.417Z,5.64
2023-12-18T21:18:41.723Z,5.65
2023-12-18T21:21:08.885Z,5.67
2023-12-18T21:23:35.537Z,5.66
2023-12-18T21:26:07.037Z,5.65
2023-12-18T21:28:33.920Z,5.64
2023-12-18T21:31:00.749Z,5.64
2023-12-18T21:33:27.725Z,5.64
2023-12-18T21:35:54.296Z,5.63
2023-12-18T21:38:20.768Z,5.63
2023-12-18T21:40:47.247Z,5.60
2023-12-18T21:43:14.597Z,5.60
2023-12-18T21:45:41.254Z,5.62
2023-12-18T21:48:08.032Z,5.63
2023-12-18T21:50:40.226Z,5.63
2023-12-18T21:53:07.737Z,5.63
2023-12-18T21:55:34.416Z,5.66
2023-12-18T21:58:01.258Z,5.66
2023-12-18T22:00:29.735Z,5.67
2023-12-18T22:02:57.475Z,5.68
2023-12-18T22:05:24.204Z,5.68
2023-12-18T22:07:50.948Z,5.68
2023-12-18T22:10:17.652Z,5.67
2023-12-18T22:12:44.551Z,5.68
2023-12-18T22:15:11.688Z,5.67
2023-12-18T22:17:38.273Z,5.66
2023-12-18T22:20:06.025Z,5.67
2023-12-18T22:22:33.302Z,5.66
2023-12-18T22:24:59.921Z,5.66
2023-12-18T22:27:26.537Z,5.65
2023-12-18T22:29:53.134Z,5.64
2023-12-18T22:32:19.558Z,5.64
2023-12-18T22:34:46.227Z,5.63
2023-12-18T22:37:13.588Z,5.63
2023-12-18T22:39:41.071Z,5.64
2023-12-18T22:42:07.695Z,5.63
2023-12-18T22:44:34.304Z,5.63
2023-12-18T22:47:00.993Z,5.62
2023-12-18T22:49:27.576Z,5.61
2023-12-18T22:51:54.599Z,5.61
2023-12-18T22:54:21.125Z,5.59
2023-12-18T22:56:47.685Z,5.59
2023-12-18T22:59:14.270Z,5.58
2023-12-18T23:01:41.268Z,5.55
2023-12-18T23:04:07.939Z,5.55
2023-12-18T23:06:34.560Z,5.55
2023-12-18T23:09:02.182Z,5.54
2023-12-18T23:11:28.702Z,5.55
2023-12-18T23:13:55.292Z,5.55
2023-12-18T23:16:21.771Z,5.56
2023-12-18T23:18:48.834Z,5.58
2023-12-18T23:21:15.553Z,5.57
2023-12-18T23:23:42.428Z,5.59
2023-12-18T23:26:09.806Z,5.59
2023-12-18T23:28:37.066Z,5.60
2023-12-18T23:31:04.698Z,5.61
2023-12-18T23:33:32.222Z,5.62
2023-12-18T23:35:59.703Z,5.62
2023-12-18T23:38:26.811Z,5.61
2023-12-18T23:40:54.228Z,5.59
2023-12-18T23:43:20.782Z,5.58
2023-12-18T23:45:47.424Z,5.59
2023-12-18T23:48:13.929Z,5.58
2023-12-18T23:50:41.033Z,5.58
2023-12-18T23:53:08.341Z,5.59
2023-12-18T23:55:34.818Z,5.59
2023-12-18T23:58:01.480Z,5.58
